Strona główna
METAR-TAF:

METAR-TAF

Lotnisko :

Platforma wiertnicza

Troll A, Norwegia

Szerokość geograficzna: 60-38-42N, Długość geograficzna: 3-43-29E, wysokość: 20 m

Aktualna obserwacja pogody

Raport powstał 10 minut temu, godzina 03:20 UTC
Wiatr 15 kt od południe
Temperatura 3°C
Wilgotność 75%
Ciśnienie 991 hPa
Widzialność 10 km lub więcej
słaby deszcz

METAR: ENQA 240320Z AUTO 17015KT 9999NDV -RA FEW014/// SCT031/// BKN041/// 03/M01 Q0991 W04/S4

czas: 04:30 (03:30 UTC)


TAF: brakujący

Obserwacja i prognoza pogody dla ponad 4000 lotnisk (raport METAR i TAF).

Dostępne stacje oznaczono żółtymi i czerwonymi punktami na mapie.

Najedź kursorem aby zobaczyć nazwę stacji.

Kliknij aby zobaczyć obserwacje i prognozy pogody.

Aby zmienić mapę: kliknij na zielony przycisk z czarnym krzyżykiem, aby powiększyć; na zielony przycisk z myślnikiem, aby pomniejszyć; na zielone strzałki, aby przejść do map sąsiednich.


METAR-TAF: